createdAt,value
2018-12-24T00:02:45.893Z,11.83
2018-12-24T00:13:57.765Z,11.60
2018-12-24T00:16:39.337Z,13.23
2018-12-24T00:19:20.829Z,10.43
2018-12-24T00:22:02.260Z,14.83
2018-12-24T00:24:43.271Z,11.83
2018-12-24T00:27:24.135Z,13.07
2018-12-24T00:30:05.254Z,8.23
2018-12-24T00:32:46.067Z,8.47
2018-12-24T00:35:27.146Z,9.17
2018-12-24T00:38:08.312Z,7.37
2018-12-24T00:40:49.544Z,9.20
2018-12-24T00:43:30.582Z,8.27
2018-12-24T00:46:11.416Z,10.33
2018-12-24T00:48:53.146Z,11.03
2018-12-24T00:51:34.454Z,11.80
2018-12-24T00:54:15.580Z,12.37
2018-12-24T00:56:57.337Z,15.97
2018-12-24T00:59:38.530Z,15.07
2018-12-24T01:02:20.138Z,16.40
2018-12-24T01:05:01.054Z,19.07
2018-12-24T01:07:42.124Z,18.63
2018-12-24T01:10:23.162Z,18.83
2018-12-24T01:13:04.884Z,15.63
2018-12-24T01:15:46.234Z,18.20
2018-12-24T01:18:27.385Z,18.37
2018-12-24T01:21:08.965Z,15.13
2018-12-24T01:23:49.793Z,15.80
2018-12-24T01:26:30.836Z,19.03
2018-12-24T01:29:11.828Z,17.40
2018-12-24T01:31:52.696Z,19.57
2018-12-24T01:34:34.030Z,17.00
2018-12-24T01:37:15.468Z,23.27
2018-12-24T01:39:45.250Z,21.80
2018-12-24T01:42:34.077Z,18.83
2018-12-24T01:48:10.429Z,21.23
2018-12-24T01:53:30.196Z,21.73
2018-12-24T01:56:20.462Z,21.27
2018-12-24T01:59:09.232Z,18.40
2018-12-24T02:01:58.252Z,18.93
2018-12-24T02:07:41.327Z,18.80
2018-12-24T02:10:30.269Z,19.97
2018-12-24T02:19:21.083Z,22.30
2018-12-24T02:25:04.196Z,24.00
2018-12-24T02:33:23.490Z,28.30
2018-12-24T02:36:12.250Z,28.40
2018-12-24T02:39:00.974Z,24.53
2018-12-24T02:41:49.674Z,25.63
2018-12-24T02:44:38.378Z,26.13
2018-12-24T02:47:27.164Z,24.50
2018-12-24T02:50:15.910Z,24.80
2018-12-24T02:53:04.817Z,21.43
2018-12-24T03:01:55.609Z,20.83
2018-12-24T03:04:44.319Z,25.53
2018-12-24T03:07:33.076Z,23.97
2018-12-24T03:10:21.956Z,23.77
2018-12-24T03:13:10.716Z,23.93
2018-12-24T03:18:59.932Z,23.80
2018-12-24T03:21:41.445Z,25.23
2018-12-24T03:24:22.588Z,25.17
2018-12-24T03:27:03.438Z,26.33
2018-12-24T03:29:45.136Z,24.50
2018-12-24T03:32:26.315Z,23.40
2018-12-24T03:35:07.445Z,21.73
2018-12-24T03:37:48.951Z,25.80
2018-12-24T03:40:30.451Z,22.03
2018-12-24T03:43:12.835Z,25.47
2018-12-24T03:45:54.746Z,24.33
2018-12-24T03:48:35.879Z,24.33
2018-12-24T03:51:17.187Z,25.97
2018-12-24T03:53:58.242Z,24.10
2018-12-24T03:56:39.428Z,24.97
2018-12-24T03:59:20.306Z,26.37
2018-12-24T04:02:01.491Z,24.13
2018-12-24T04:04:42.556Z,24.83
2018-12-24T04:07:23.584Z,24.83
2018-12-24T04:10:05.488Z,21.53
2018-12-24T04:12:46.934Z,28.90
2018-12-24T04:15:27.928Z,25.03
2018-12-24T04:18:09.245Z,25.90
2018-12-24T04:20:50.428Z,23.83
2018-12-24T04:23:31.798Z,28.00
2018-12-24T04:26:12.817Z,30.20
2018-12-24T04:28:53.818Z,29.73
2018-12-24T04:31:35.057Z,28.90
2018-12-24T04:34:25.299Z,28.07
2018-12-24T04:37:14.201Z,31.07
2018-12-24T04:42:58.663Z,26.17
2018-12-24T04:45:47.414Z,24.97
2018-12-24T04:48:28.262Z,26.07
2018-12-24T04:51:09.978Z,20.90
2018-12-24T04:53:51.927Z,21.63
2018-12-24T04:56:32.885Z,21.23
2018-12-24T04:59:14.360Z,19.03
2018-12-24T05:01:56.110Z,23.10
2018-12-24T05:04:37.799Z,25.63
2018-12-24T05:07:18.848Z,20.03
2018-12-24T05:10:00.448Z,17.70
2018-12-24T05:12:42.230Z,20.50
2018-12-24T05:15:23.172Z,21.33
2018-12-24T05:18:04.554Z,20.97
2018-12-24T05:20:46.052Z,22.87
2018-12-24T05:23:27.544Z,20.73
2018-12-24T05:26:09.278Z,23.60
2018-12-24T05:28:50.736Z,25.50
2018-12-24T05:31:32.572Z,22.60
2018-12-24T05:34:14.396Z,21.10
2018-12-24T05:36:56.036Z,23.73
2018-12-24T05:39:37.153Z,23.40
2018-12-24T05:42:18.326Z,25.43
2018-12-24T05:44:59.834Z,19.47
2018-12-24T05:47:40.651Z,24.13
2018-12-24T05:50:21.560Z,23.60
2018-12-24T05:53:02.960Z,22.67
2018-12-24T05:55:44.265Z,23.43
2018-12-24T05:58:25.475Z,22.03
2018-12-24T06:01:06.328Z,21.57
2018-12-24T06:03:47.152Z,22.50
2018-12-24T06:06:28.393Z,18.63
2018-12-24T06:09:10.109Z,21.10
2018-12-24T06:11:51.782Z,24.37
2018-12-24T06:14:32.895Z,26.83
2018-12-24T06:17:13.793Z,27.97
2018-12-24T06:19:55.293Z,30.30
2018-12-24T06:22:36.541Z,30.80
2018-12-24T06:25:17.863Z,28.80
2018-12-24T06:27:58.898Z,22.73
2018-12-24T06:30:40.625Z,20.20
2018-12-24T06:33:21.497Z,20.47
2018-12-24T06:36:03.145Z,20.77
2018-12-24T06:38:44.005Z,20.20
2018-12-24T06:41:24.987Z,18.93
2018-12-24T06:44:06.815Z,19.97
2018-12-24T06:46:37.170Z,18.50
2018-12-24T06:49:06.996Z,24.40
2018-12-24T06:51:36.893Z,20.43
2018-12-24T06:57:14.655Z,20.07
2018-12-24T06:59:44.579Z,18.33
2018-12-24T07:02:14.584Z,23.50
2018-12-24T07:05:03.350Z,21.93
2018-12-24T07:07:33.236Z,22.53
2018-12-24T07:10:22.117Z,31.40
2018-12-24T07:13:10.980Z,26.23
2018-12-24T07:15:59.800Z,23.47
2018-12-24T07:18:48.506Z,17.73
2018-12-24T07:21:37.445Z,18.73
2018-12-24T07:24:26.121Z,22.03
2018-12-24T07:27:14.895Z,20.23
2018-12-24T07:30:03.824Z,19.17
2018-12-24T07:32:52.697Z,18.57
2018-12-24T07:35:41.507Z,21.03
2018-12-24T07:38:30.273Z,19.80
2018-12-24T07:47:13.128Z,16.43
2018-12-24T07:49:54.748Z,17.97
2018-12-24T07:52:35.649Z,15.40
2018-12-24T07:55:16.769Z,16.63
2018-12-24T07:57:57.661Z,13.83
2018-12-24T08:00:38.608Z,13.43
2018-12-24T08:03:19.668Z,11.53
2018-12-24T08:06:00.972Z,14.00
2018-12-24T08:08:41.884Z,13.77
2018-12-24T08:11:22.821Z,16.60
2018-12-24T08:14:03.691Z,16.77
2018-12-24T08:16:44.591Z,13.10
2018-12-24T08:19:26.800Z,12.50
2018-12-24T08:21:57.071Z,12.37
2018-12-24T08:24:45.876Z,15.77
2018-12-24T08:27:34.681Z,11.50
2018-12-24T08:30:23.400Z,11.17
2018-12-24T08:33:12.161Z,10.17
2018-12-24T08:36:00.824Z,14.87
2018-12-24T08:38:49.577Z,13.13
2018-12-24T08:41:38.371Z,11.87
2018-12-24T08:44:27.345Z,11.97
2018-12-24T08:47:16.174Z,10.13
2018-12-24T08:50:05.122Z,11.53
2018-12-24T08:52:53.840Z,8.13
2018-12-24T08:55:42.578Z,9.23
2018-12-24T08:58:31.431Z,8.03
2018-12-24T09:01:20.245Z,10.00
2018-12-24T09:04:09.030Z,6.77
2018-12-24T09:06:58.084Z,7.30
2018-12-24T09:09:47.020Z,10.87
2018-12-24T09:12:35.845Z,6.77
2018-12-24T09:15:24.597Z,8.50
2018-12-24T09:18:13.999Z,4.80
2018-12-24T09:20:54.989Z,9.70
2018-12-24T09:23:36.131Z,13.70
2018-12-24T09:26:17.232Z,7.40
2018-12-24T09:28:58.280Z,8.80
2018-12-24T09:31:39.153Z,7.27
2018-12-24T09:34:20.141Z,7.47
2018-12-24T09:37:01.692Z,5.53
2018-12-24T09:39:42.472Z,5.63
2018-12-24T09:42:23.243Z,4.60
2018-12-24T09:45:04.321Z,5.13
2018-12-24T09:47:45.418Z,5.63
2018-12-24T09:50:26.253Z,4.90
2018-12-24T09:53:07.404Z,6.03
2018-12-24T09:55:48.640Z,6.53
2018-12-24T09:58:29.632Z,4.50
2018-12-24T10:01:10.397Z,3.60
2018-12-24T10:03:51.585Z,3.30
2018-12-24T10:06:32.875Z,5.57
2018-12-24T10:09:14.186Z,4.43
2018-12-24T10:11:55.363Z,4.27
2018-12-24T10:14:36.233Z,5.43
2018-12-24T10:17:17.417Z,3.47
2018-12-24T10:19:58.483Z,4.33
2018-12-24T10:22:39.969Z,3.83
2018-12-24T10:25:20.784Z,3.57
2018-12-24T10:28:01.934Z,3.97
2018-12-24T10:30:43.657Z,3.67
2018-12-24T10:33:24.442Z,2.93
2018-12-24T10:36:05.926Z,3.23
2018-12-24T10:38:46.788Z,3.13
2018-12-24T10:41:29.686Z,2.77
2018-12-24T10:44:10.764Z,2.97
2018-12-24T10:46:51.642Z,5.43
2018-12-24T10:52:12.251Z,5.17
2018-12-24T10:54:53.920Z,2.97
2018-12-24T10:57:35.104Z,3.27
2018-12-24T11:00:16.182Z,3.80
2018-12-24T11:02:57.023Z,2.77
2018-12-24T11:05:38.057Z,3.13
2018-12-24T11:08:19.236Z,3.20
2018-12-24T11:11:00.960Z,2.77
2018-12-24T11:13:41.976Z,5.80
2018-12-24T11:16:23.675Z,3.63
2018-12-24T11:19:05.041Z,4.80
2018-12-24T11:21:46.712Z,4.27
2018-12-24T11:24:28.240Z,3.03
2018-12-24T11:27:09.841Z,3.03
2018-12-24T11:29:51.544Z,5.53
2018-12-24T11:32:21.379Z,3.67
2018-12-24T11:34:51.151Z,3.93
2018-12-24T11:37:21.141Z,5.57
2018-12-24T11:39:50.901Z,5.10
2018-12-24T11:42:20.701Z,5.03
2018-12-24T11:44:50.467Z,5.33
2018-12-24T11:47:20.239Z,3.87
2018-12-24T11:49:50.134Z,5.00
2018-12-24T11:52:19.981Z,5.07
2018-12-24T11:54:49.832Z,2.50
2018-12-24T11:57:19.814Z,2.70
2018-12-24T11:59:49.578Z,4.53
2018-12-24T12:02:19.369Z,3.33
2018-12-24T12:04:49.265Z,5.03
2018-12-24T12:07:19.212Z,2.90
2018-12-24T12:09:49.832Z,4.83
2018-12-24T12:12:19.679Z,3.37
2018-12-24T12:14:49.440Z,4.97
2018-12-24T12:17:19.199Z,4.83
2018-12-24T12:19:48.983Z,5.37
2018-12-24T12:22:18.753Z,6.03
2018-12-24T12:24:48.593Z,6.03
2018-12-24T12:27:18.394Z,4.93
2018-12-24T12:29:48.299Z,3.37
2018-12-24T12:32:18.186Z,4.13
2018-12-24T12:34:47.984Z,4.00
2018-12-24T12:37:17.752Z,4.00
2018-12-24T12:39:47.538Z,5.63
2018-12-24T12:42:17.769Z,4.27
2018-12-24T12:44:47.652Z,5.43
2018-12-24T12:47:17.481Z,6.10
2018-12-24T12:49:47.297Z,4.03
2018-12-24T12:52:17.136Z,4.10
2018-12-24T12:54:46.899Z,4.77
2018-12-24T12:57:16.780Z,5.23
2018-12-24T12:59:46.516Z,4.23
2018-12-24T13:02:16.349Z,3.87
2018-12-24T13:04:46.281Z,6.47
2018-12-24T13:07:16.055Z,4.80
2018-12-24T13:09:45.827Z,3.50
2018-12-24T13:12:15.771Z,5.40
2018-12-24T13:14:45.620Z,4.30
2018-12-24T13:17:15.574Z,4.37
2018-12-24T13:19:45.354Z,5.80
2018-12-24T13:22:15.263Z,4.00
2018-12-24T13:24:45.038Z,4.53
2018-12-24T13:27:14.891Z,5.67
2018-12-24T13:29:44.627Z,6.80
2018-12-24T13:32:14.462Z,5.87
2018-12-24T13:34:44.307Z,5.33
2018-12-24T13:37:14.184Z,5.17
2018-12-24T13:39:44.067Z,5.77
2018-12-24T13:42:13.852Z,7.53
2018-12-24T13:44:43.627Z,5.57
2018-12-24T13:47:13.494Z,4.60
2018-12-24T13:49:43.335Z,7.87
2018-12-24T13:52:13.108Z,5.10
2018-12-24T13:54:42.902Z,6.03
2018-12-24T13:57:12.821Z,5.03
2018-12-24T13:59:42.811Z,5.77
2018-12-24T14:02:12.572Z,3.90
2018-12-24T14:04:42.382Z,4.10
2018-12-24T14:07:12.149Z,4.33
2018-12-24T14:09:41.964Z,4.47
2018-12-24T14:12:11.718Z,3.87
2018-12-24T14:14:41.632Z,3.30
2018-12-24T14:17:11.635Z,3.30
2018-12-24T14:19:41.517Z,4.37
2018-12-24T14:22:11.661Z,3.00
2018-12-24T14:24:41.479Z,5.20
2018-12-24T14:27:11.248Z,4.17
2018-12-24T14:29:42.490Z,2.83
2018-12-24T14:32:12.260Z,6.37
2018-12-24T14:34:42.093Z,3.57
2018-12-24T14:37:11.936Z,4.87
2018-12-24T14:39:41.717Z,3.70
2018-12-24T14:42:11.483Z,3.17
2018-12-24T14:44:41.525Z,2.27
2018-12-24T14:47:11.249Z,3.03
2018-12-24T14:49:41.029Z,2.53
2018-12-24T14:52:10.922Z,5.60
2018-12-24T14:54:40.729Z,4.20
2018-12-24T14:57:10.548Z,5.17
2018-12-24T14:59:40.349Z,6.07
2018-12-24T15:02:10.250Z,4.43
2018-12-24T15:04:40.001Z,3.97
2018-12-24T15:07:09.818Z,5.37
2018-12-24T15:09:39.721Z,4.63
2018-12-24T15:12:09.614Z,9.60
2018-12-24T15:14:39.425Z,7.03
2018-12-24T15:17:09.239Z,10.43
2018-12-24T15:19:39.100Z,11.40
2018-12-24T15:22:08.978Z,11.27
2018-12-24T15:24:38.745Z,25.83
2018-12-24T15:27:08.597Z,4.37
2018-12-24T15:29:38.319Z,5.73
2018-12-24T15:32:08.179Z,5.63
2018-12-24T15:34:37.964Z,11.30
2018-12-24T15:37:07.734Z,8.47
2018-12-24T15:39:37.523Z,7.40
2018-12-24T15:42:07.296Z,6.43
2018-12-24T15:44:37.081Z,4.40
2018-12-24T15:47:06.916Z,6.77
2018-12-24T15:49:36.794Z,4.77
2018-12-24T15:52:06.588Z,6.70
2018-12-24T15:54:36.395Z,4.20
2018-12-24T15:57:06.197Z,6.13
2018-12-24T15:59:36.013Z,4.97
2018-12-24T16:02:05.788Z,8.43
2018-12-24T16:04:35.695Z,8.20
2018-12-24T16:07:05.556Z,6.80
2018-12-24T16:09:35.412Z,7.83
2018-12-24T16:12:05.213Z,10.63
2018-12-24T16:14:35.077Z,9.27
2018-12-24T16:17:05.078Z,8.27
2018-12-24T16:19:34.865Z,9.30
2018-12-24T16:22:04.703Z,12.07
2018-12-24T16:24:34.527Z,15.87
2018-12-24T16:27:04.320Z,11.37
2018-12-24T16:29:34.167Z,20.27
2018-12-24T16:32:03.983Z,15.97
2018-12-24T16:34:33.824Z,14.03
2018-12-24T16:37:03.642Z,13.27
2018-12-24T16:39:33.477Z,13.60
2018-12-24T16:42:03.252Z,14.47
2018-12-24T16:44:33.017Z,12.17
2018-12-24T16:47:02.903Z,14.23
2018-12-24T16:49:32.830Z,17.87
2018-12-24T16:52:02.637Z,17.20
2018-12-24T16:54:32.458Z,14.77
2018-12-24T16:57:02.229Z,15.23
2018-12-24T16:59:32.053Z,28.93
2018-12-24T17:02:01.844Z,14.60
2018-12-24T17:04:31.675Z,19.60
2018-12-24T17:07:01.536Z,20.30
2018-12-24T17:09:31.481Z,21.13
2018-12-24T17:12:01.286Z,15.07
2018-12-24T17:14:31.125Z,20.70
2018-12-24T17:17:07.755Z,20.60
2018-12-24T17:19:32.428Z,20.80
2018-12-24T17:22:02.200Z,18.37
2018-12-24T17:24:31.958Z,35.13
2018-12-24T17:27:01.771Z,19.57
2018-12-24T17:29:31.544Z,26.97
2018-12-24T17:32:01.379Z,24.33
2018-12-24T17:34:31.176Z,25.60
2018-12-24T17:37:01.002Z,21.07
2018-12-24T17:39:30.739Z,21.33
2018-12-24T17:42:00.513Z,18.20
2018-12-24T17:44:30.350Z,24.07
2018-12-24T17:47:00.127Z,22.20
2018-12-24T17:49:29.985Z,20.63
2018-12-24T17:51:59.760Z,19.60
2018-12-24T17:54:29.643Z,20.90
2018-12-24T17:56:59.572Z,23.47
2018-12-24T17:59:29.525Z,24.47
2018-12-24T18:01:59.355Z,18.10
2018-12-24T18:04:29.163Z,22.33
2018-12-24T18:06:58.948Z,36.57
2018-12-24T18:09:28.742Z,20.07
2018-12-24T18:11:58.484Z,20.43
2018-12-24T18:14:28.293Z,20.77
2018-12-24T18:16:58.092Z,21.77
2018-12-24T18:19:27.996Z,26.07
2018-12-24T18:21:57.750Z,18.50
2018-12-24T18:24:27.560Z,21.23
2018-12-24T18:26:57.392Z,23.17
2018-12-24T18:29:27.219Z,26.03
2018-12-24T18:31:57.107Z,23.10
2018-12-24T18:34:27.053Z,22.70
2018-12-24T18:36:56.921Z,26.57
2018-12-24T18:39:26.999Z,27.87
2018-12-24T18:41:56.879Z,23.63
2018-12-24T18:44:26.719Z,27.40
2018-12-24T18:46:56.572Z,25.80
2018-12-24T18:49:26.424Z,27.50
2018-12-24T18:51:56.248Z,26.70
2018-12-24T18:54:26.044Z,24.10
2018-12-24T18:56:55.891Z,419.33
2018-12-24T18:59:25.716Z,240.90
2018-12-24T19:01:56.559Z,306.50
2018-12-24T19:04:26.494Z,147.23
2018-12-24T19:06:56.443Z,114.07
2018-12-24T19:09:26.215Z,210.33
2018-12-24T19:11:56.164Z,35.73
2018-12-24T19:14:26.549Z,113.63
2018-12-24T19:16:56.445Z,92.00
2018-12-24T19:19:32.464Z,90.00
2018-12-24T19:22:02.340Z,38.57
2018-12-24T19:24:32.130Z,43.07
2018-12-24T19:27:02.069Z,42.53
2018-12-24T19:29:31.832Z,42.57
2018-12-24T19:32:01.737Z,60.47
2018-12-24T19:34:31.647Z,33.93
2018-12-24T19:37:01.625Z,51.40
2018-12-24T19:39:31.577Z,39.70
2018-12-24T19:42:01.551Z,33.63
2018-12-24T19:44:31.403Z,32.73
2018-12-24T19:47:01.633Z,33.27
2018-12-24T19:49:31.660Z,26.23
2018-12-24T19:52:01.687Z,23.87
2018-12-24T19:54:31.489Z,20.77
2018-12-24T19:57:01.444Z,22.70
2018-12-24T19:59:31.496Z,27.47
2018-12-24T20:02:01.460Z,27.70
2018-12-24T20:04:31.735Z,27.57
2018-12-24T20:07:01.842Z,23.33
2018-12-24T20:09:31.806Z,23.90
2018-12-24T20:12:04.488Z,25.23
2018-12-24T20:14:35.167Z,20.17
2018-12-24T20:17:05.065Z,24.47
2018-12-24T20:19:35.037Z,20.27
2018-12-24T20:22:04.837Z,23.73
2018-12-24T20:24:34.722Z,22.97
2018-12-24T20:27:04.730Z,28.37
2018-12-24T20:29:34.692Z,27.70
2018-12-24T20:32:04.637Z,22.10
2018-12-24T20:34:34.730Z,24.33
2018-12-24T20:37:04.586Z,20.10
2018-12-24T20:39:34.380Z,15.93
2018-12-24T20:42:04.170Z,18.57
2018-12-24T20:44:33.919Z,20.57
2018-12-24T20:47:03.737Z,24.67
2018-12-24T20:49:33.526Z,19.20
2018-12-24T20:52:03.326Z,20.03
2018-12-24T20:54:33.134Z,23.00
2018-12-24T20:57:02.962Z,21.70
2018-12-24T20:59:32.769Z,23.30
2018-12-24T21:02:02.729Z,24.90
2018-12-24T21:04:32.518Z,18.30
2018-12-24T21:07:02.323Z,20.17
2018-12-24T21:09:32.057Z,20.17
2018-12-24T21:12:01.862Z,22.63
2018-12-24T21:14:31.676Z,42.67
2018-12-24T21:17:01.541Z,22.43
2018-12-24T21:19:31.341Z,17.20
2018-12-24T21:22:01.168Z,27.17
2018-12-24T21:24:30.949Z,18.70
2018-12-24T21:27:00.768Z,22.07
2018-12-24T21:29:30.597Z,24.77
2018-12-24T21:32:00.483Z,24.63
2018-12-24T21:34:30.289Z,24.87
2018-12-24T21:37:00.073Z,19.23
2018-12-24T21:39:29.930Z,27.83
2018-12-24T21:41:59.851Z,21.77
2018-12-24T21:44:29.791Z,17.13
2018-12-24T21:46:59.584Z,19.27
2018-12-24T21:49:29.360Z,20.10
2018-12-24T21:51:59.203Z,22.70
2018-12-24T21:54:28.976Z,16.27
2018-12-24T21:56:58.923Z,16.60
2018-12-24T21:59:28.831Z,14.67
2018-12-24T22:01:58.612Z,15.90
2018-12-24T22:04:28.405Z,15.77
2018-12-24T22:06:58.109Z,19.33
2018-12-24T22:09:27.920Z,16.93
2018-12-24T22:11:57.688Z,21.63
2018-12-24T22:14:27.483Z,15.63
2018-12-24T22:16:57.191Z,13.83
2018-12-24T22:19:26.989Z,13.50
2018-12-24T22:21:56.765Z,15.47
2018-12-24T22:24:26.578Z,14.17
2018-12-24T22:26:56.488Z,13.43
2018-12-24T22:29:26.283Z,13.40
2018-12-24T22:31:56.065Z,10.90
2018-12-24T22:34:25.816Z,14.37
2018-12-24T22:36:56.233Z,16.03
2018-12-24T22:39:26.007Z,11.70
2018-12-24T22:41:55.770Z,12.67
2018-12-24T22:44:25.533Z,15.00
2018-12-24T22:46:55.431Z,13.80
2018-12-24T22:49:25.290Z,14.80
2018-12-24T22:51:55.063Z,13.23
2018-12-24T22:54:24.794Z,16.17
2018-12-24T22:56:54.582Z,12.07
2018-12-24T22:59:24.331Z,13.90
2018-12-24T23:01:54.160Z,14.57
2018-12-24T23:04:23.937Z,11.93
2018-12-24T23:06:53.688Z,13.00
2018-12-24T23:09:23.450Z,12.00
2018-12-24T23:11:53.252Z,13.17
2018-12-24T23:14:22.995Z,12.27
2018-12-24T23:16:52.859Z,11.63
2018-12-24T23:19:22.637Z,12.50
2018-12-24T23:21:52.369Z,12.47
2018-12-24T23:24:22.164Z,14.23
2018-12-24T23:26:51.955Z,14.17
2018-12-24T23:29:21.729Z,12.33
2018-12-24T23:31:51.471Z,10.63
2018-12-24T23:34:21.245Z,12.37
2018-12-24T23:36:51.000Z,13.30
2018-12-24T23:39:20.785Z,12.13
2018-12-24T23:41:50.559Z,11.77
2018-12-24T23:44:20.331Z,14.80
2018-12-24T23:46:50.108Z,13.53
2018-12-24T23:49:19.971Z,13.97
2018-12-24T23:51:49.800Z,12.77
2018-12-24T23:54:19.603Z,14.40
2018-12-24T23:56:49.364Z,12.17
2018-12-24T23:59:19.171Z,11.57
